createdAt,value
2019-06-15T00:00:22.727Z,99.90
2019-06-15T00:02:51.733Z,99.90
2019-06-15T00:05:20.772Z,99.90
2019-06-15T00:07:49.806Z,99.90
2019-06-15T00:10:18.928Z,99.90
2019-06-15T00:12:47.894Z,99.90
2019-06-15T00:15:16.907Z,99.90
2019-06-15T00:17:45.904Z,99.90
2019-06-15T00:20:14.879Z,99.90
2019-06-15T00:22:43.951Z,99.90
2019-06-15T00:25:12.956Z,99.90
2019-06-15T00:27:42.044Z,99.90
2019-06-15T00:30:11.083Z,99.90
2019-06-15T00:32:40.029Z,99.90
2019-06-15T00:35:09.123Z,99.90
2019-06-15T00:37:38.207Z,99.90
2019-06-15T00:40:07.323Z,99.90
2019-06-15T00:42:36.331Z,99.90
2019-06-15T00:45:05.716Z,99.90
2019-06-15T00:47:34.705Z,99.90
2019-06-15T00:50:03.813Z,99.90
2019-06-15T00:52:32.745Z,99.90
2019-06-15T00:55:01.856Z,99.90
2019-06-15T00:57:31.031Z,99.90
2019-06-15T01:00:00.164Z,99.90
2019-06-15T01:02:29.180Z,99.90
2019-06-15T01:04:58.226Z,99.90
2019-06-15T01:07:27.302Z,99.90
2019-06-15T01:09:56.393Z,99.90
2019-06-15T01:12:25.484Z,99.90
2019-06-15T01:14:54.525Z,99.90
2019-06-15T01:17:23.541Z,99.90
2019-06-15T01:19:52.508Z,99.90
2019-06-15T01:22:21.486Z,99.90
2019-06-15T01:25:02.487Z,99.90
2019-06-15T01:27:21.346Z,99.90
2019-06-15T01:29:50.520Z,99.90
2019-06-15T01:32:19.625Z,99.90
2019-06-15T01:34:48.757Z,99.90
2019-06-15T01:37:17.771Z,99.90
2019-06-15T01:39:48.881Z,99.90
2019-06-15T01:42:17.904Z,99.90
2019-06-15T01:44:46.988Z,99.90
2019-06-15T01:47:16.132Z,99.90
2019-06-15T01:49:45.232Z,99.90
2019-06-15T01:52:14.287Z,99.90
2019-06-15T01:54:43.380Z,99.90
2019-06-15T01:57:12.407Z,99.90
2019-06-15T01:59:41.507Z,99.90
2019-06-15T02:02:10.501Z,99.90
2019-06-15T02:04:39.508Z,99.90
2019-06-15T02:07:08.531Z,99.90
2019-06-15T02:09:37.647Z,99.90
2019-06-15T02:12:06.725Z,99.90
2019-06-15T02:14:35.713Z,99.90
2019-06-15T02:17:04.852Z,99.90
2019-06-15T02:19:33.835Z,99.90
2019-06-15T02:22:02.772Z,99.90
2019-06-15T02:24:31.849Z,99.90
2019-06-15T02:27:00.825Z,99.90
2019-06-15T02:29:30.040Z,99.90
2019-06-15T02:31:59.155Z,99.90
2019-06-15T02:34:28.251Z,99.90
2019-06-15T02:36:57.292Z,99.90
2019-06-15T02:39:26.436Z,99.90
2019-06-15T02:41:55.579Z,99.90
2019-06-15T02:44:24.667Z,99.90
2019-06-15T02:46:53.683Z,99.90
2019-06-15T02:49:22.661Z,99.90
2019-06-15T02:51:51.758Z,99.90
2019-06-15T02:54:20.755Z,99.90
2019-06-15T02:56:49.716Z,99.90
2019-06-15T02:59:18.862Z,99.90
2019-06-15T03:01:47.748Z,99.90
2019-06-15T03:04:16.899Z,99.90
2019-06-15T03:06:45.993Z,99.90
2019-06-15T03:09:15.138Z,99.90
2019-06-15T03:11:44.138Z,99.90
2019-06-15T03:14:13.106Z,99.90
2019-06-15T03:16:45.237Z,99.90
2019-06-15T03:19:14.337Z,99.90
2019-06-15T03:21:43.450Z,99.90
2019-06-15T03:24:12.431Z,99.90
2019-06-15T03:26:41.434Z,99.90
2019-06-15T03:29:10.496Z,99.90
2019-06-15T03:31:39.472Z,99.90
2019-06-15T03:34:08.454Z,99.90
2019-06-15T03:36:37.544Z,99.90
2019-06-15T03:39:07.539Z,99.90
2019-06-15T03:41:36.600Z,99.90
2019-06-15T03:44:05.781Z,99.90
2019-06-15T03:46:34.727Z,99.90
2019-06-15T03:49:03.692Z,99.90
2019-06-15T03:51:32.641Z,99.90
2019-06-15T03:54:01.643Z,99.90
2019-06-15T03:56:30.552Z,99.90
2019-06-15T03:58:59.569Z,99.90
2019-06-15T04:01:35.179Z,99.90
2019-06-15T04:04:04.246Z,99.90
2019-06-15T04:06:33.287Z,99.90
2019-06-15T04:09:02.289Z,99.90
2019-06-15T04:11:31.370Z,99.90
2019-06-15T04:14:00.451Z,99.90
2019-06-15T04:16:29.478Z,99.90
2019-06-15T04:18:58.657Z,99.90
2019-06-15T04:21:27.690Z,99.90
2019-06-15T04:23:56.798Z,99.90
2019-06-15T04:26:35.562Z,99.90
2019-06-15T04:28:56.586Z,99.90
2019-06-15T04:31:25.647Z,99.90
2019-06-15T04:33:54.748Z,99.90
2019-06-15T04:36:23.796Z,99.90
2019-06-15T04:38:52.937Z,99.90
2019-06-15T04:41:22.203Z,99.90
2019-06-15T04:43:51.242Z,99.90
2019-06-15T04:46:20.330Z,99.90
2019-06-15T04:48:49.402Z,99.90
2019-06-15T04:51:18.475Z,99.90
2019-06-15T04:53:48.317Z,99.90
2019-06-15T04:56:22.341Z,99.90
2019-06-15T04:58:51.328Z,99.90
2019-06-15T05:01:20.402Z,99.90
2019-06-15T05:03:50.163Z,99.90
2019-06-15T05:06:19.791Z,99.90
2019-06-15T05:08:48.869Z,99.90
2019-06-15T05:11:17.907Z,99.90
2019-06-15T05:13:47.004Z,99.90
2019-06-15T05:16:16.100Z,99.90
2019-06-15T05:18:45.130Z,99.90
2019-06-15T05:21:14.144Z,99.90
2019-06-15T05:23:43.339Z,99.90
2019-06-15T05:26:12.443Z,99.90
2019-06-15T05:28:41.382Z,99.90
2019-06-15T05:31:10.425Z,99.90
2019-06-15T05:33:39.449Z,99.90
2019-06-15T05:36:08.510Z,99.90
2019-06-15T05:38:38.331Z,99.90
2019-06-15T05:41:08.144Z,99.90
2019-06-15T05:43:37.191Z,99.90
2019-06-15T05:46:06.207Z,99.90
2019-06-15T05:48:35.288Z,99.90
2019-06-15T05:51:04.327Z,99.90
2019-06-15T05:53:33.379Z,99.90
2019-06-15T05:56:02.382Z,99.90
2019-06-15T05:58:31.377Z,99.90
2019-06-15T06:01:00.363Z,99.90
2019-06-15T06:03:29.260Z,99.90
2019-06-15T06:05:58.344Z,99.90
2019-06-15T06:08:27.267Z,99.90
2019-06-15T06:10:56.226Z,99.90
2019-06-15T06:13:25.296Z,99.90
2019-06-15T06:15:54.295Z,99.90
2019-06-15T06:18:23.339Z,99.90
2019-06-15T06:20:52.315Z,99.90
2019-06-15T06:23:21.246Z,99.90
2019-06-15T06:25:50.576Z,99.90
2019-06-15T06:28:20.089Z,99.90
2019-06-15T06:30:49.022Z,99.90
2019-06-15T06:33:17.930Z,99.90
2019-06-15T06:35:47.100Z,99.90
2019-06-15T06:38:16.439Z,99.90
2019-06-15T06:40:45.505Z,99.90
2019-06-15T06:43:14.617Z,99.90
2019-06-15T06:45:44.272Z,99.90
2019-06-15T06:48:13.295Z,99.90
2019-06-15T06:50:42.221Z,99.90
2019-06-15T06:53:11.148Z,99.90
2019-06-15T06:55:40.111Z,99.90
2019-06-15T06:58:09.172Z,99.90
2019-06-15T07:00:38.358Z,99.90
2019-06-15T07:03:07.457Z,99.90
2019-06-15T07:05:36.500Z,99.90
2019-06-15T07:08:05.620Z,99.90
2019-06-15T07:10:34.719Z,99.90
2019-06-15T07:13:03.748Z,99.90
2019-06-15T07:15:32.922Z,99.90
2019-06-15T07:18:01.990Z,99.90
2019-06-15T07:20:31.154Z,99.90
2019-06-15T07:23:00.116Z,99.90
2019-06-15T07:25:29.113Z,99.90
2019-06-15T07:28:07.580Z,99.90
2019-06-15T07:30:28.697Z,99.90
2019-06-15T07:32:57.982Z,99.90
2019-06-15T07:35:27.025Z,99.90
2019-06-15T07:37:56.241Z,99.90
2019-06-15T07:40:25.434Z,99.90
2019-06-15T07:42:54.344Z,99.90
2019-06-15T07:45:23.678Z,99.90
2019-06-15T07:47:52.750Z,99.90
2019-06-15T07:50:21.740Z,99.90
2019-06-15T07:52:50.855Z,99.90
2019-06-15T07:55:20.101Z,99.90
2019-06-15T07:57:49.245Z,99.90
2019-06-15T08:00:18.294Z,99.90
2019-06-15T08:02:47.317Z,99.90
2019-06-15T08:05:16.487Z,99.90
2019-06-15T08:07:45.479Z,99.90
2019-06-15T08:10:14.361Z,99.90
2019-06-15T08:12:43.354Z,99.90
2019-06-15T08:15:12.372Z,99.90
2019-06-15T08:17:41.359Z,99.90
2019-06-15T08:20:10.408Z,99.90
2019-06-15T08:22:39.322Z,99.90
2019-06-15T08:25:08.380Z,99.90
2019-06-15T08:27:37.323Z,99.90
2019-06-15T08:30:06.545Z,99.90
2019-06-15T08:32:35.537Z,99.90
2019-06-15T08:35:04.888Z,99.90
2019-06-15T08:37:33.938Z,99.90
2019-06-15T08:40:03.066Z,99.90
2019-06-15T08:42:32.423Z,99.90
2019-06-15T08:45:01.619Z,99.90
2019-06-15T08:47:30.787Z,99.90
2019-06-15T08:49:59.875Z,99.90
2019-06-15T08:52:29.728Z,99.90
2019-06-15T08:54:58.798Z,99.90
2019-06-15T08:57:27.853Z,99.90
2019-06-15T08:59:56.917Z,99.90
2019-06-15T09:02:26.031Z,99.90
2019-06-15T09:04:55.152Z,99.90
2019-06-15T09:07:24.143Z,99.90
2019-06-15T09:09:53.967Z,99.90
2019-06-15T09:12:24.957Z,99.90
2019-06-15T09:14:53.683Z,99.90
2019-06-15T09:17:22.801Z,99.90
2019-06-15T09:19:51.799Z,99.90
2019-06-15T09:22:20.794Z,99.90
2019-06-15T09:24:49.758Z,99.90
2019-06-15T09:27:18.904Z,99.90
2019-06-15T09:29:48.283Z,99.90
2019-06-15T09:32:17.633Z,99.90
2019-06-15T09:34:46.600Z,99.90
2019-06-15T09:37:15.665Z,99.90
2019-06-15T09:39:44.661Z,99.90
2019-06-15T09:42:13.854Z,99.90
2019-06-15T09:44:43.240Z,99.90
2019-06-15T09:47:12.336Z,99.90
2019-06-15T09:49:41.898Z,99.90
2019-06-15T09:52:11.086Z,99.90
2019-06-15T09:54:40.094Z,99.90
2019-06-15T09:57:09.071Z,99.90
2019-06-15T09:59:38.535Z,99.90
2019-06-15T10:02:07.681Z,99.90
2019-06-15T10:04:36.667Z,99.90
2019-06-15T10:07:05.755Z,99.90
2019-06-15T10:09:34.887Z,99.90
2019-06-15T10:12:03.846Z,99.90
2019-06-15T10:14:33.731Z,99.90
2019-06-15T10:17:02.729Z,99.90
2019-06-15T10:19:31.768Z,99.90
2019-06-15T10:22:00.819Z,99.90
2019-06-15T10:24:29.890Z,99.90
2019-06-15T10:26:58.952Z,99.90
2019-06-15T10:29:41.253Z,99.90
2019-06-15T10:31:58.792Z,99.90
2019-06-15T10:34:27.883Z,99.90
2019-06-15T10:36:57.024Z,99.90
2019-06-15T10:39:25.954Z,99.90
2019-06-15T10:41:54.935Z,99.90
2019-06-15T10:44:23.962Z,99.90
2019-06-15T10:46:52.788Z,99.90
2019-06-15T10:49:21.686Z,99.90
2019-06-15T10:51:50.739Z,99.90
2019-06-15T10:54:19.661Z,99.90
2019-06-15T10:56:48.673Z,99.90
2019-06-15T10:59:19.005Z,99.90
2019-06-15T11:01:48.105Z,99.90
2019-06-15T11:04:17.174Z,99.90
2019-06-15T11:06:46.200Z,99.90
2019-06-15T11:09:15.220Z,99.90
2019-06-15T11:11:44.387Z,99.90
2019-06-15T11:14:13.452Z,99.90
2019-06-15T11:16:42.555Z,99.90
2019-06-15T11:19:11.609Z,99.90
2019-06-15T11:21:40.613Z,99.90
2019-06-15T11:24:09.708Z,99.90
2019-06-15T11:26:41.829Z,99.90
2019-06-15T11:29:09.493Z,99.90
2019-06-15T11:31:38.536Z,99.90
2019-06-15T11:34:07.642Z,99.90
2019-06-15T11:36:36.825Z,99.90
2019-06-15T11:39:08.552Z,99.90
2019-06-15T11:41:37.468Z,99.90
2019-06-15T11:44:06.694Z,99.90
2019-06-15T11:46:35.724Z,99.90
2019-06-15T11:49:04.798Z,99.90
2019-06-15T11:51:33.808Z,99.90
2019-06-15T11:54:02.990Z,99.90
2019-06-15T11:56:31.963Z,99.90
2019-06-15T11:59:00.948Z,99.90
2019-06-15T12:01:30.163Z,99.90
2019-06-15T12:03:59.253Z,99.90
2019-06-15T12:06:28.317Z,99.90
2019-06-15T12:08:57.436Z,99.90
2019-06-15T12:11:26.507Z,99.90
2019-06-15T12:13:55.655Z,99.90
2019-06-15T12:16:24.735Z,99.90
2019-06-15T12:18:54.131Z,99.90
2019-06-15T12:21:23.223Z,99.90
2019-06-15T12:23:52.254Z,99.10
2019-06-15T12:26:22.109Z,97.30
2019-06-15T12:28:51.170Z,97.10
2019-06-15T12:31:20.085Z,97.50
2019-06-15T12:33:49.120Z,98.70
2019-06-15T12:36:19.792Z,98.00
2019-06-15T12:38:49.012Z,96.10
2019-06-15T12:41:18.474Z,95.90
2019-06-15T12:43:47.558Z,93.70
2019-06-15T12:46:16.956Z,94.10
2019-06-15T12:48:46.055Z,94.90
2019-06-15T12:51:15.070Z,93.90
2019-06-15T12:53:44.104Z,94.70
2019-06-15T12:56:15.034Z,94.60
2019-06-15T12:58:44.179Z,95.40
2019-06-15T13:01:13.245Z,95.50
2019-06-15T13:03:42.261Z,95.80
2019-06-15T13:06:11.338Z,95.30
2019-06-15T13:08:40.356Z,94.50
2019-06-15T13:11:09.352Z,95.00
2019-06-15T13:13:38.490Z,94.40
2019-06-15T13:16:07.575Z,93.90
2019-06-15T13:18:36.687Z,94.30
2019-06-15T13:21:05.705Z,94.70
2019-06-15T13:23:34.723Z,95.50
2019-06-15T13:26:03.745Z,94.30
2019-06-15T13:28:32.912Z,93.60
2019-06-15T13:31:14.864Z,93.60
2019-06-15T13:33:33.445Z,91.60
2019-06-15T13:36:02.492Z,91.90
2019-06-15T13:38:31.585Z,92.10
2019-06-15T13:41:00.582Z,91.70
2019-06-15T13:43:29.632Z,92.50
2019-06-15T13:45:58.622Z,93.70
2019-06-15T13:48:27.697Z,92.70
2019-06-15T13:50:56.803Z,94.10
2019-06-15T13:53:25.702Z,93.30
2019-06-15T13:55:54.795Z,92.80
2019-06-15T13:58:23.796Z,92.30
2019-06-15T14:00:52.801Z,90.60
2019-06-15T14:03:21.815Z,91.20
2019-06-15T14:05:50.951Z,92.10
2019-06-15T14:08:19.980Z,92.40
2019-06-15T14:10:48.936Z,92.00
2019-06-15T14:13:17.781Z,92.70
2019-06-15T14:15:46.778Z,94.50
2019-06-15T14:18:15.852Z,93.80
2019-06-15T14:20:44.950Z,93.40
2019-06-15T14:23:13.975Z,93.00
2019-06-15T14:25:43.049Z,93.50
2019-06-15T14:28:12.024Z,92.70
2019-06-15T14:30:41.095Z,91.80
2019-06-15T14:33:10.121Z,90.10
2019-06-15T14:35:39.251Z,86.60
2019-06-15T14:38:08.493Z,85.50
2019-06-15T14:40:37.539Z,82.80
2019-06-15T14:43:06.549Z,82.80
2019-06-15T14:45:35.639Z,82.70
2019-06-15T14:48:29.687Z,81.50
2019-06-15T14:50:58.847Z,80.30
2019-06-15T14:53:28.237Z,78.80
2019-06-15T14:55:57.271Z,80.00
2019-06-15T14:58:26.442Z,79.20
2019-06-15T15:00:57.193Z,79.80
2019-06-15T15:03:26.441Z,80.50
2019-06-15T15:05:55.587Z,79.40
2019-06-15T15:08:26.441Z,76.50
2019-06-15T15:10:56.276Z,76.40
2019-06-15T15:13:26.371Z,74.70
2019-06-15T15:15:57.036Z,77.30
2019-06-15T15:18:27.004Z,77.60
2019-06-15T15:20:56.546Z,81.60
2019-06-15T15:23:25.659Z,84.20
2019-06-15T15:25:57.396Z,82.00
2019-06-15T15:28:25.506Z,79.60
2019-06-15T15:30:54.786Z,80.90
2019-06-15T15:33:23.917Z,78.50
2019-06-15T15:35:52.975Z,77.70
2019-06-15T15:38:22.839Z,77.40
2019-06-15T15:40:56.142Z,77.10
2019-06-15T15:43:26.383Z,76.10
2019-06-15T15:45:56.419Z,76.60
2019-06-15T15:48:25.900Z,74.10
2019-06-15T15:50:57.247Z,72.70
2019-06-15T15:53:26.410Z,74.00
2019-06-15T15:55:58.090Z,71.90
2019-06-15T15:58:27.219Z,72.30
2019-06-15T16:00:57.176Z,73.50
2019-06-15T16:03:26.547Z,71.90
2019-06-15T16:05:56.105Z,70.00
2019-06-15T16:08:28.181Z,71.10
2019-06-15T16:10:56.586Z,69.60
2019-06-15T16:13:26.877Z,67.90
2019-06-15T16:15:55.810Z,68.50
2019-06-15T16:18:24.859Z,70.20
2019-06-15T16:20:53.870Z,73.20
2019-06-15T16:23:22.836Z,73.00
2019-06-15T16:25:52.042Z,70.30
2019-06-15T16:28:21.013Z,69.80
2019-06-15T16:31:05.107Z,68.90
2019-06-15T16:33:20.758Z,68.90
2019-06-15T16:35:49.903Z,71.00
2019-06-15T16:38:19.709Z,70.60
2019-06-15T16:40:48.829Z,71.70
2019-06-15T16:43:17.903Z,72.30
2019-06-15T16:45:46.961Z,70.90
2019-06-15T16:48:16.772Z,71.00
2019-06-15T16:50:46.998Z,72.20
2019-06-15T16:53:16.804Z,72.00
2019-06-15T16:55:46.863Z,75.20
2019-06-15T16:58:16.240Z,76.90
2019-06-15T17:00:47.652Z,78.50
2019-06-15T17:03:24.204Z,79.30
2019-06-15T17:05:46.781Z,81.10
2019-06-15T17:08:17.225Z,81.20
2019-06-15T17:10:46.395Z,82.70
2019-06-15T17:13:16.089Z,82.10
2019-06-15T17:15:46.824Z,83.40
2019-06-15T17:18:16.271Z,82.00
2019-06-15T17:20:49.723Z,82.50
2019-06-15T17:23:18.867Z,83.50
2019-06-15T17:25:47.985Z,84.20
2019-06-15T17:28:17.003Z,84.70
2019-06-15T17:30:45.959Z,86.00
2019-06-15T17:33:16.555Z,87.90
2019-06-15T17:35:56.225Z,85.90
2019-06-15T17:38:16.890Z,87.90
2019-06-15T17:40:46.179Z,86.70
2019-06-15T17:43:16.225Z,88.30
2019-06-15T17:45:46.815Z,87.20
2019-06-15T17:48:17.516Z,87.80
2019-06-15T17:50:47.661Z,90.10
2019-06-15T17:53:17.163Z,89.70
2019-06-15T17:55:46.813Z,90.00
2019-06-15T17:58:17.006Z,90.10
2019-06-15T18:00:47.174Z,90.90
2019-06-15T18:03:17.074Z,90.60
2019-06-15T18:05:47.978Z,91.10
2019-06-15T18:08:17.257Z,90.90
2019-06-15T18:10:47.700Z,90.90
2019-06-15T18:13:20.052Z,91.10
2019-06-15T18:15:49.142Z,92.00
2019-06-15T18:18:18.210Z,92.20
2019-06-15T18:20:47.208Z,92.10
2019-06-15T18:23:17.495Z,92.50
2019-06-15T18:25:47.137Z,93.30
2019-06-15T18:28:17.508Z,93.40
2019-06-15T18:30:47.564Z,93.40
2019-06-15T18:33:39.875Z,93.90
2019-06-15T18:36:09.066Z,93.90
2019-06-15T18:38:38.036Z,94.30
2019-06-15T18:41:09.011Z,94.50
2019-06-15T18:43:38.031Z,94.70
2019-06-15T18:46:07.286Z,95.00
2019-06-15T18:48:36.323Z,95.40
2019-06-15T18:51:07.568Z,95.60
2019-06-15T18:53:39.290Z,96.10
2019-06-15T18:56:07.557Z,96.00
2019-06-15T18:58:37.237Z,96.20
2019-06-15T19:01:07.111Z,96.60
2019-06-15T19:03:37.645Z,97.00
2019-06-15T19:06:07.036Z,97.30
2019-06-15T19:08:47.974Z,97.60
2019-06-15T19:11:16.946Z,98.10
2019-06-15T19:13:46.617Z,98.60
2019-06-15T19:16:16.639Z,99.10
2019-06-15T19:18:46.351Z,99.70
2019-06-15T19:21:16.947Z,99.90
2019-06-15T19:23:46.932Z,99.90
2019-06-15T19:26:16.529Z,99.90
2019-06-15T19:28:46.434Z,99.90
2019-06-15T19:31:15.548Z,99.90
2019-06-15T19:33:46.679Z,99.90
2019-06-15T19:36:15.426Z,99.90
2019-06-15T19:38:46.958Z,99.90
2019-06-15T19:41:15.984Z,99.90
2019-06-15T19:43:46.756Z,99.90
2019-06-15T19:46:17.055Z,99.90
2019-06-15T19:48:46.148Z,99.90
2019-06-15T19:51:15.127Z,99.90
2019-06-15T19:53:46.223Z,99.90
2019-06-15T19:56:14.981Z,99.90
2019-06-15T19:58:46.126Z,99.90
2019-06-15T20:01:16.835Z,99.90
2019-06-15T20:03:46.442Z,99.90
2019-06-15T20:06:18.611Z,99.90
2019-06-15T20:08:47.555Z,99.90
2019-06-15T20:11:16.603Z,99.90
2019-06-15T20:13:47.470Z,99.90
2019-06-15T20:16:16.645Z,99.90
2019-06-15T20:18:46.611Z,99.90
2019-06-15T20:21:17.479Z,99.90
2019-06-15T20:23:47.459Z,99.90
2019-06-15T20:26:16.527Z,99.90
2019-06-15T20:28:46.983Z,99.90
2019-06-15T20:31:16.885Z,99.90
2019-06-15T20:33:46.661Z,99.90
2019-06-15T20:36:16.112Z,99.90
2019-06-15T20:38:46.902Z,99.90
2019-06-15T20:41:16.337Z,99.90
2019-06-15T20:43:46.052Z,99.90
2019-06-15T20:46:17.210Z,99.90
2019-06-15T20:48:47.058Z,99.90
2019-06-15T20:51:17.314Z,99.90
2019-06-15T20:53:46.543Z,99.90
2019-06-15T20:56:17.083Z,99.90
2019-06-15T20:58:46.143Z,99.90
2019-06-15T21:01:16.459Z,99.90
2019-06-15T21:03:46.986Z,99.90
2019-06-15T21:06:16.852Z,99.90
2019-06-15T21:08:46.940Z,99.90
2019-06-15T21:11:17.044Z,99.90
2019-06-15T21:13:46.886Z,99.90
2019-06-15T21:16:15.977Z,99.90
2019-06-15T21:18:46.717Z,99.90
2019-06-15T21:21:16.069Z,99.90
2019-06-15T21:23:46.329Z,99.90
2019-06-15T21:26:16.394Z,99.90
2019-06-15T21:28:45.559Z,99.90
2019-06-15T21:31:16.590Z,99.90
2019-06-15T21:33:46.793Z,99.90
2019-06-15T21:36:15.960Z,99.90
2019-06-15T21:38:46.764Z,99.90
2019-06-15T21:41:16.657Z,99.90
2019-06-15T21:43:47.147Z,99.90
2019-06-15T21:46:16.822Z,99.90
2019-06-15T21:48:46.946Z,99.90
2019-06-15T21:51:16.621Z,99.90
2019-06-15T21:53:46.903Z,99.90
2019-06-15T21:56:16.154Z,99.90
2019-06-15T21:58:45.296Z,99.90
2019-06-15T22:01:37.071Z,99.90
2019-06-15T22:04:06.716Z,99.90
2019-06-15T22:06:37.329Z,99.90
2019-06-15T22:09:12.495Z,99.90
2019-06-15T22:11:42.815Z,99.90
2019-06-15T22:14:11.956Z,99.90
2019-06-15T22:16:40.934Z,99.90
2019-06-15T22:19:10.017Z,99.90
2019-06-15T22:21:39.224Z,99.90
2019-06-15T22:24:08.339Z,99.90
2019-06-15T22:26:37.391Z,99.90
2019-06-15T22:29:07.369Z,99.90
2019-06-15T22:31:36.709Z,99.90
2019-06-15T22:34:06.617Z,99.90
2019-06-15T22:36:36.388Z,99.90
2019-06-15T22:39:06.549Z,99.90
2019-06-15T22:41:36.165Z,99.90
2019-06-15T22:44:06.412Z,99.90
2019-06-15T22:46:35.500Z,99.90
2019-06-15T22:49:06.611Z,99.90
2019-06-15T22:51:36.874Z,99.90
2019-06-15T22:54:06.075Z,99.90
2019-06-15T22:56:37.096Z,99.90
2019-06-15T22:59:06.255Z,99.90
2019-06-15T23:01:35.559Z,99.90
2019-06-15T23:04:06.607Z,99.90
2019-06-15T23:06:40.957Z,99.90
2019-06-15T23:09:07.474Z,99.90
2019-06-15T23:11:36.830Z,99.90
2019-06-15T23:14:06.800Z,99.90
2019-06-15T23:16:36.871Z,99.90
2019-06-15T23:19:07.861Z,99.90
2019-06-15T23:21:37.354Z,99.90
2019-06-15T23:24:06.872Z,99.90
2019-06-15T23:26:36.892Z,99.90
2019-06-15T23:29:06.951Z,99.90
2019-06-15T23:31:36.728Z,99.90
2019-06-15T23:34:07.045Z,99.90
2019-06-15T23:36:53.216Z,99.90
2019-06-15T23:39:09.236Z,99.90
2019-06-15T23:41:38.192Z,99.90
2019-06-15T23:44:07.293Z,99.90
2019-06-15T23:46:36.420Z,99.90
2019-06-15T23:49:07.080Z,99.90
2019-06-15T23:51:36.998Z,99.90
2019-06-15T23:54:06.303Z,99.90
2019-06-15T23:56:36.861Z,99.90
2019-06-15T23:59:07.007Z,99.90
